Time;durP1;ratioP1;P1;durP2;ratioP2;P2;SDS_P1;SDS_P2;PMS_P1;PMS_P2;Temp;Humidity;BMP_temperature;BMP_pressure;BME280_temperature;BME280_humidity;BME280_pressure;Samples;Min_cycle;Max_cycle;Signal;HPM_P1;HPM_P2
2023/06/21 04:01:48;;;;;;;0.70;0.20;;;23.40;66.20;;;;;;5422111;23;20506;-76
2023/06/21 04:04:16;;;;;;;0.70;0.20;;;23.40;65.80;;;;;;4937171;29;20963;-76
2023/06/21 04:06:44;;;;;;;0.70;0.10;;;23.40;66.00;;;;;;4937274;29;20541;-76
2023/06/21 04:09:14;;;;;;;0.70;0.10;;;23.50;63.70;;;;;;4936910;29;20442;-76
2023/06/21 04:11:42;;;;;;;0.70;0.10;;;23.60;63.50;;;;;;4943628;28;20545;-76
2023/06/21 04:14:11;;;;;;;0.70;0.10;;;23.70;62.50;;;;;;4936476;29;20489;-76
2023/06/21 04:16:39;;;;;;;0.70;0.27;;;23.70;61.50;;;;;;4938150;29;20484;-78
2023/06/21 04:19:08;;;;;;;1.53;1.27;;;23.70;61.40;;;;;;4937131;29;20446;-78
2023/06/21 04:21:36;;;;;;;1.13;0.73;;;23.50;63.70;;;;;;4936561;29;20494;-77
2023/06/21 04:24:05;;;;;;;0.70;0.20;;;;;;;;;;4936591;29;20478;-77
2023/06/21 04:26:34;;;;;;;2.33;1.70;;;23.30;68.00;;;;;;4938944;29;20943;-76
2023/06/21 04:29:02;;;;;;;1.20;0.53;;;;;;;;;;4936355;29;20485;-77
2023/06/21 04:31:30;;;;;;;0.70;0.20;;;23.00;75.30;;;;;;4929514;29;20509;-77
2023/06/21 04:33:58;;;;;;;0.70;0.20;;;22.90;80.50;;;;;;4934787;29;20450;-77
2023/06/21 04:36:28;;;;;;;0.70;0.20;;;23.00;81.90;;;;;;4936297;29;20448;-76
2023/06/21 04:38:56;;;;;;;1.53;1.13;;;;;;;;;;4936121;29;20454;-77
2023/06/21 04:41:24;;;;;;;1.50;0.90;;;;;;;;;;4936283;29;20534;-76
2023/06/21 04:43:52;;;;;;;1.57;0.50;;;;;;;;;;4936320;29;20457;-76
2023/06/21 04:46:21;;;;;;;0.90;0.40;;;23.00;86.50;;;;;;4934946;29;20980;-70
2023/06/21 04:48:50;;;;;;;1.33;1.07;;;23.00;87.90;;;;;;4935558;29;20454;-71
2023/06/21 04:51:18;;;;;;;0.70;0.17;;;23.00;89.00;;;;;;4934962;29;20487;-70
2023/06/21 04:53:48;;;;;;;1.47;1.37;;;;;;;;;;4935395;29;20459;-71
2023/06/21 04:56:17;;;;;;;0.80;0.63;;;;;;;;;;4936001;29;20457;-70
2023/06/21 04:58:45;;;;;;;0.70;0.20;;;22.80;85.20;;;;;;4935340;29;20466;-70
2023/06/21 05:01:13;;;;;;;0.70;0.10;;;22.90;86.60;;;;;;4934952;29;20589;-71
2023/06/21 05:03:41;;;;;;;0.70;0.20;;;23.10;85.50;;;;;;4934813;29;21012;-70
2023/06/21 05:06:09;;;;;;;1.17;1.07;;;23.00;78.80;;;;;;4933700;29;20473;-71
2023/06/21 05:08:37;;;;;;;0.80;0.20;;;23.10;79.40;;;;;;4934593;29;20495;-70
2023/06/21 05:11:08;;;;;;;0.70;0.20;;;23.00;79.10;;;;;;4943528;28;20483;-71
2023/06/21 05:13:36;;;;;;;0.70;0.20;;;23.10;80.80;;;;;;4954306;29;20484;-71
2023/06/21 05:16:04;;;;;;;0.70;0.20;;;23.20;74.50;;;;;;4940143;29;20945;-71
2023/06/21 05:18:32;;;;;;;2.63;0.90;;;23.10;71.10;;;;;;4924971;29;20547;-71
2023/06/21 05:21:00;;;;;;;4.73;4.43;;;;;;;;;;4924808;29;20473;-70
2023/06/21 05:23:28;;;;;;;0.70;0.10;;;;;;;;;;4928182;29;20509;-70
2023/06/21 05:25:56;;;;;;;0.70;0.20;;;23.00;73.00;;;;;;4929674;29;20928;-72
2023/06/21 05:28:26;;;;;;;1.23;0.97;;;23.10;65.60;;;;;;4934611;29;20497;-71
2023/06/21 05:30:54;;;;;;;2.00;1.53;;;22.90;62.90;;;;;;4934988;29;20491;-71
2023/06/21 05:33:22;;;;;;;1.90;1.40;;;;;;;;;;4933065;29;21020;-71
2023/06/21 05:35:50;;;;;;;0.70;0.30;;;22.90;61.60;;;;;;4933928;29;20454;-71
2023/06/21 05:38:18;;;;;;;0.70;0.10;;;;;;;;;;4929202;29;20490;-71
2023/06/21 05:40:47;;;;;;;2.10;0.40;;;;;;;;;;4935168;29;20477;-71
2023/06/21 05:43:15;;;;;;;1.63;0.80;;;;;;;;;;4934821;29;20494;-71
2023/06/21 05:45:44;;;;;;;0.90;0.77;;;23.10;57.30;;;;;;4926640;29;20474;-71
2023/06/21 05:48:12;;;;;;;3.37;3.07;;;23.10;53.60;;;;;;4923598;29;20484;-74
2023/06/21 05:50:41;;;;;;;2.20;0.70;;;;;;;;;;4933509;29;20807;-73
2023/06/21 05:53:09;;;;;;;0.73;0.53;;;23.00;54.10;;;;;;4935864;29;20473;-73
2023/06/21 05:55:37;;;;;;;1.03;0.93;;;22.90;58.60;;;;;;4934714;29;20440;-72
2023/06/21 05:58:06;;;;;;;0.70;0.30;;;;;;;;;;4934313;29;21035;-68
2023/06/21 06:00:34;;;;;;;1.50;1.00;;;22.90;56.40;;;;;;4934319;29;20540;-74
2023/06/21 06:03:03;;;;;;;0.70;0.10;;;22.80;57.00;;;;;;4934124;29;20589;-73
2023/06/21 06:05:31;;;;;;;0.70;0.20;;;23.00;60.20;;;;;;4935271;29;20454;-73
2023/06/21 06:07:59;;;;;;;0.70;0.10;;;23.10;60.40;;;;;;4935132;29;20762;-75
2023/06/21 06:10:27;;;;;;;0.70;0.10;;;23.20;65.00;;;;;;4939777;29;20512;-73
2023/06/21 06:12:56;;;;;;;1.97;0.47;;;;;;;;;;4954885;29;20962;-74
2023/06/21 06:15:24;;;;;;;1.80;0.87;;;;;;;;;;4954603;29;20512;-74
2023/06/21 06:17:52;;;;;;;0.70;0.20;;;23.50;57.50;;;;;;4956994;29;20448;-73
2023/06/21 06:20:21;;;;;;;0.70;0.40;;;23.50;53.10;;;;;;4946815;29;20459;-73
2023/06/21 06:22:49;;;;;;;0.70;0.10;;;;;;;;;;4944528;29;20502;-73
2023/06/21 06:25:17;;;;;;;0.70;0.20;;;23.60;51.20;;;;;;4940233;29;20848;-73
2023/06/21 06:27:45;;;;;;;0.70;0.20;;;23.50;52.10;;;;;;4937946;29;20458;-74
2023/06/21 06:30:14;;;;;;;0.70;0.10;;;;;;;;;;4936939;29;20486;-74
2023/06/21 06:32:42;;;;;;;0.70;0.20;;;23.70;52.20;;;;;;4935882;29;20467;-73
2023/06/21 06:35:10;;;;;;;0.70;0.10;;;23.80;47.30;;;;;;4935042;29;20465;-73
2023/06/21 06:37:39;;;;;;;0.70;0.10;;;23.70;44.70;;;;;;4935505;29;20466;-72
2023/06/21 06:40:08;;;;;;;1.10;0.40;;;23.80;47.10;;;;;;4934918;29;20458;-73
2023/06/21 06:42:37;;;;;;;0.70;0.20;;;;;;;;;;4934442;29;20486;-73
2023/06/21 06:45:08;;;;;;;0.70;0.20;;;24.00;46.20;;;;;;4935026;29;20505;-74
2023/06/21 06:47:36;;;;;;;0.70;0.20;;;;;;;;;;4922241;29;20794;-74
2023/06/21 06:50:04;;;;;;;0.70;0.20;;;;;;;;;;4934923;29;20449;-74
2023/06/21 06:52:32;;;;;;;1.07;0.90;;;23.70;34.30;;;;;;4934034;29;20470;-74
2023/06/21 06:55:03;;;;;;;0.70;0.20;;;23.70;36.00;;;;;;4934931;29;20463;-74
2023/06/21 06:57:31;;;;;;;0.70;0.10;;;;;;;;;;4934723;29;20457;-73
2023/06/21 07:00:11;;;;;;;0.70;0.20;;;23.70;37.90;;;;;;4934740;29;20472;-73
2023/06/21 07:02:39;;;;;;;0.70;0.20;;;23.80;39.70;;;;;;4933819;29;20980;-74
2023/06/21 07:05:08;;;;;;;1.37;1.27;;;;;;;;;;4934502;29;20453;-74
2023/06/21 07:07:36;;;;;;;0.70;0.20;;;;;;;;;;4934701;29;20456;-74
2023/06/21 07:10:06;;;;;;;2.03;1.73;;;23.70;35.20;;;;;;4937185;29;20463;-73
2023/06/21 07:12:34;;;;;;;2.97;1.90;;;23.40;36.30;;;;;;4937653;29;20521;-72
2023/06/21 07:15:03;;;;;;;1.53;1.43;;;;;;;;;;4937616;29;20461;-73
2023/06/21 07:17:31;;;;;;;0.70;0.30;;;;;;;;;;4937992;29;20449;-74
2023/06/21 07:19:59;;;;;;;0.70;0.10;;;;;;;;;;4937898;29;20453;-74
2023/06/21 07:22:28;;;;;;;1.60;1.30;;;23.50;44.30;;;;;;4938338;29;20816;-74
2023/06/21 07:24:56;;;;;;;0.70;0.10;;;23.40;43.80;;;;;;4938153;29;20517;-73
2023/06/21 07:27:26;;;;;;;1.20;0.87;;;23.40;45.50;;;;;;4937904;29;20466;-73
2023/06/21 07:29:55;;;;;;;0.93;0.33;;;23.30;45.70;;;;;;4937487;29;20465;-73
2023/06/21 07:32:23;;;;;;;0.70;0.10;;;;;;;;;;4937517;29;20493;-74
2023/06/21 07:34:58;;;;;;;0.70;0.10;;;23.40;48.00;;;;;;4937944;29;20451;-73
2023/06/21 07:37:27;;;;;;;1.90;1.00;;;23.40;50.50;;;;;;4938969;29;20460;-73
2023/06/21 07:39:56;;;;;;;1.03;0.93;;;23.30;52.00;;;;;;4939222;29;20914;-73
2023/06/21 07:42:25;;;;;;;1.30;1.07;;;23.30;53.10;;;;;;4939070;29;20476;-73
2023/06/21 07:44:54;;;;;;;0.70;0.30;;;;;;;;;;4939040;29;20464;-73
2023/06/21 07:47:23;;;;;;;0.70;0.10;;;;;;;;;;4939412;29;20540;-73
2023/06/21 07:49:51;;;;;;;0.70;0.20;;;23.70;54.20;;;;;;4938290;29;20449;-73
2023/06/21 07:52:20;;;;;;;1.83;1.13;;;;;;;;;;4937639;29;20513;-75
2023/06/21 07:54:49;;;;;;;1.17;0.87;;;;;;;;;;4938645;29;20439;-73
2023/06/21 07:57:17;;;;;;;1.37;0.30;;;23.70;44.50;;;;;;4939122;29;20551;-74
2023/06/21 07:59:47;;;;;;;0.70;0.40;;;23.70;45.30;;;;;;4938339;29;20454;-73
2023/06/21 08:02:17;;;;;;;2.07;1.23;;;;;;;;;;4937108;29;21010;-74
2023/06/21 08:04:46;;;;;;;0.70;0.17;;;23.80;47.50;;;;;;4936478;29;20485;-73
2023/06/21 08:07:14;;;;;;;0.70;0.30;;;;;;;;;;4931184;29;20453;-73
2023/06/21 08:09:42;;;;;;;1.23;1.13;;;23.60;51.90;;;;;;4928130;29;20465;-73
2023/06/21 08:12:10;;;;;;;1.17;1.07;;;;;;;;;;4931148;29;20894;-73
2023/06/21 08:14:39;;;;;;;0.80;0.47;;;;;;;;;;4930330;29;20502;-74
2023/06/21 08:17:08;;;;;;;1.67;0.67;;;24.00;52.80;;;;;;4927332;29;20475;-74
2023/06/21 08:19:37;;;;;;;0.70;0.10;;;24.00;53.20;;;;;;4927335;29;20452;-75
2023/06/21 08:22:05;;;;;;;0.70;0.20;;;24.20;53.80;;;;;;4926517;29;21047;-74
2023/06/21 08:24:34;;;;;;;0.70;0.20;;;24.40;49.40;;;;;;4920484;29;20559;-74
2023/06/21 08:27:02;;;;;;;13.33;12.57;;;24.60;49.80;;;;;;4919767;29;20480;-74
2023/06/21 08:29:30;;;;;;;1.23;1.13;;;24.80;44.30;;;;;;4920539;29;20442;-74
2023/06/21 08:31:57;;;;;;;1.47;1.00;;;24.80;39.30;;;;;;4919971;29;20610;-73
2023/06/21 08:34:27;;;;;;;0.70;0.10;;;;;;;;;;4920871;29;20527;-73
2023/06/21 08:36:55;;;;;;;0.70;0.10;;;24.80;39.00;;;;;;4919433;29;20463;-74
2023/06/21 08:39:23;;;;;;;0.70;0.10;;;;;;;;;;4930679;29;20561;-75
2023/06/21 08:41:53;;;;;;;0.80;0.30;;;24.70;37.70;;;;;;4930068;29;20468;-74
2023/06/21 08:44:21;;;;;;;0.70;0.20;;;;;;;;;;4917120;29;20488;-74
2023/06/21 08:46:50;;;;;;;1.17;1.07;;;24.90;39.50;;;;;;4926398;29;20462;-74
2023/06/21 08:49:20;;;;;;;1.50;1.27;;;24.80;50.60;;;;;;4936691;29;20899;-72
2023/06/21 08:51:51;;;;;;;0.70;0.30;;;24.80;35.00;;;;;;4936037;29;20827;-73
2023/06/21 08:54:24;;;;;;;1.90;1.80;;;25.00;34.80;;;;;;4936331;29;20478;-74
2023/06/21 08:56:56;;;;;;;0.70;0.10;;;25.10;34.10;;;;;;4937468;29;20462;-73
2023/06/21 08:59:29;;;;;;;0.80;0.30;;;25.30;29.40;;;;;;4936867;29;20456;-73
2023/06/21 09:02:04;;;;;;;0.70;0.10;;;25.20;29.40;;;;;;4935798;29;20515;-73
2023/06/21 09:04:39;;;;;;;0.70;0.20;;;25.20;39.00;;;;;;4935493;29;20495;-73
2023/06/21 09:07:09;;;;;;;0.70;0.10;;;25.40;35.60;;;;;;4935611;29;20455;-73
2023/06/21 09:09:38;;;;;;;0.70;0.10;;;25.40;36.80;;;;;;4935233;29;20483;-73
2023/06/21 09:12:07;;;;;;;0.70;0.10;;;25.60;36.30;;;;;;4952518;28;20549;-74
2023/06/21 09:14:36;;;;;;;1.23;0.73;;;25.40;24.20;;;;;;4942146;29;20485;-74
2023/06/21 09:17:05;;;;;;;0.70;0.10;;;25.40;24.50;;;;;;4935980;29;20534;-74
2023/06/21 09:19:33;;;;;;;0.70;0.10;;;25.60;27.80;;;;;;4935545;29;20447;-73
2023/06/21 09:22:03;;;;;;;0.70;0.10;;;25.70;29.20;;;;;;4935040;29;20472;-72
2023/06/21 09:24:33;;;;;;;0.70;0.20;;;25.80;28.90;;;;;;4935333;29;20570;-72
2023/06/21 09:27:01;;;;;;;0.70;0.10;;;26.00;26.60;;;;;;4935276;29;20443;-73
2023/06/21 09:29:29;;;;;;;0.70;0.20;;;26.00;26.50;;;;;;4935993;29;20533;-73
2023/06/21 09:31:57;;;;;;;0.70;0.20;;;26.00;21.60;;;;;;4934747;29;20475;-73
2023/06/21 09:34:25;;;;;;;0.70;0.10;;;26.00;24.20;;;;;;4937436;29;20793;-72
2023/06/21 09:36:55;;;;;;;0.70;0.10;;;26.10;24.80;;;;;;4939525;29;20455;-72
2023/06/21 09:39:24;;;;;;;1.47;0.87;;;26.30;23.70;;;;;;4938024;29;20481;-72
2023/06/21 09:41:55;;;;;;;0.70;0.10;;;26.40;20.90;;;;;;4935929;29;20523;-72
2023/06/21 09:44:22;;;;;;;0.70;0.20;;;26.40;20.40;;;;;;4934850;29;20581;-72
2023/06/21 09:46:57;;;;;;;0.80;0.20;;;26.40;19.40;;;;;;4936763;29;20479;-72
2023/06/21 09:49:27;;;;;;;1.20;1.07;;;26.40;27.80;;;;;;4935625;29;20465;-74
2023/06/21 09:51:57;;;;;;;1.47;0.57;;;26.60;19.30;;;;;;4935723;29;20478;-73
2023/06/21 09:54:25;;;;;;;0.90;0.57;;;26.60;17.80;;;;;;4935713;29;20467;-73
2023/06/21 09:56:54;;;;;;;1.40;1.03;;;26.60;15.80;;;;;;4935528;29;20534;-73
2023/06/21 09:59:25;;;;;;;0.80;0.30;;;;;;;;;;4934983;29;20943;-73
2023/06/21 10:01:54;;;;;;;2.60;0.83;;;;;;;;;;4924140;29;20617;-73
2023/06/21 10:04:23;;;;;;;0.70;0.20;;;;;;;;;;4916631;29;20487;-73
2023/06/21 10:06:54;;;;;;;1.20;1.07;;;26.20;7.40;;;;;;4927225;29;20947;-73
2023/06/21 10:09:22;;;;;;;0.70;0.20;;;26.20;15.80;;;;;;4935400;29;20455;-73
2023/06/21 10:11:54;;;;;;;0.80;0.40;;;26.30;6.90;;;;;;4949953;28;20470;-72
2023/06/21 10:14:25;;;;;;;0.70;0.10;;;26.30;15.70;;;;;;4919713;29;20451;-74
2023/06/21 10:16:55;;;;;;;0.70;0.20;;;26.40;3.00;;;;;;4916752;29;20467;-74
2023/06/21 10:19:24;;;;;;;1.10;0.43;;;26.50;1.00;;;;;;4916552;29;20991;-74
2023/06/21 10:21:57;;;;;;;0.70;0.20;;;26.50;3.70;;;;;;4920712;29;20885;-73
2023/06/21 10:24:27;;;;;;;0.90;0.50;;;26.60;2.30;;;;;;4933703;29;20523;-73
2023/06/21 10:26:57;;;;;;;0.70;0.10;;;26.70;10.10;;;;;;4935710;29;20460;-74
2023/06/21 10:29:28;;;;;;;0.70;0.20;;;26.80;1.00;;;;;;4930582;29;20467;-73
2023/06/21 10:31:59;;;;;;;1.27;0.70;;;26.70;1.00;;;;;;4940341;29;20470;-73
2023/06/21 10:34:31;;;;;;;0.80;0.63;;;26.50;2.70;;;;;;4940788;29;20467;-73
2023/06/21 10:37:07;;;;;;;1.03;0.50;;;26.50;2.10;;;;;;4937467;29;20451;-74
2023/06/21 10:39:35;;;;;;;1.73;1.63;;;26.50;2.90;;;;;;4935616;29;20551;-73
2023/06/21 10:42:06;;;;;;;1.73;1.07;;;26.50;1.90;;;;;;4935735;29;20467;-74
2023/06/21 10:44:35;;;;;;;0.70;0.10;;;26.80;4.30;;;;;;4936978;29;20483;-72
2023/06/21 10:47:04;;;;;;;1.30;0.57;;;26.80;12.70;;;;;;4939137;29;20970;-73
2023/06/21 10:49:32;;;;;;;2.83;2.63;;;27.00;2.40;;;;;;4938199;29;20448;-73
2023/06/21 10:52:02;;;;;;;0.70;0.20;;;27.00;2.40;;;;;;4939192;29;20562;-73
2023/06/21 10:54:31;;;;;;;1.37;0.40;;;27.10;2.30;;;;;;4938014;29;20467;-73
2023/06/21 10:56:59;;;;;;;0.70;0.20;;;27.00;1.00;;;;;;4937716;29;20527;-73
2023/06/21 10:59:28;;;;;;;0.80;0.70;;;27.00;1.90;;;;;;4938999;29;20451;-73
2023/06/21 11:01:56;;;;;;;3.00;2.07;;;;;;;;;;4936901;29;20518;-74
2023/06/21 11:04:25;;;;;;;2.97;2.40;;;26.50;1.00;;;;;;4937655;29;20465;-72
2023/06/21 11:06:59;;;;;;;0.70;0.20;;;26.50;1.00;;;;;;4937595;29;20462;-73
2023/06/21 11:09:27;;;;;;;1.57;0.83;;;26.60;1.00;;;;;;4935036;29;20450;-72
2023/06/21 11:11:55;;;;;;;0.70;0.20;;;26.60;1.00;;;;;;4944496;28;20471;-72
2023/06/21 11:14:30;;;;;;;0.70;0.10;;;26.60;1.00;;;;;;4938284;29;20469;-73
2023/06/21 11:17:16;;;;;;;0.97;0.63;;;26.60;2.10;;;;;;4938726;29;20485;-74
2023/06/21 11:19:44;;;;;;;0.70;0.10;;;;;;;;;;4938099;29;20459;-73
2023/06/21 11:22:16;;;;;;;0.70;0.10;;;27.10;1.00;;;;;;4938405;29;20862;-75
2023/06/21 11:24:51;;;;;;;1.03;0.63;;;27.20;1.00;;;;;;4937821;29;20489;-73
2023/06/21 11:27:19;;;;;;;0.80;0.47;;;27.30;1.00;;;;;;4937767;29;21001;-74
2023/06/21 11:30:09;;;;;;;0.93;0.53;;;27.30;1.00;;;;;;4933834;29;20787;-74
2023/06/21 11:32:38;;;;;;;2.70;1.93;;;29.40;1.00;;;;;;4930149;29;20471;-75
2023/06/21 11:35:09;;;;;;;1.43;1.27;;;27.20;1.00;;;;;;4937357;29;20479;-74
2023/06/21 11:37:40;;;;;;;0.70;0.10;;;27.20;1.00;;;;;;4937620;29;20572;-74
2023/06/21 11:40:09;;;;;;;0.70;0.20;;;27.20;1.00;;;;;;4937780;29;20443;-74
2023/06/21 11:42:42;;;;;;;0.80;0.50;;;27.40;1.00;;;;;;4937445;29;20467;-73
2023/06/21 11:45:19;;;;;;;0.70;0.20;;;27.50;1.00;;;;;;4937396;29;20836;-74
2023/06/21 11:48:10;;;;;;;0.83;0.47;;;27.50;1.00;;;;;;4932433;29;20519;-73
2023/06/21 11:50:39;;;;;;;0.70;0.20;;;;;;;;;;4937395;29;20546;-74
2023/06/21 11:53:22;;;;;;;0.80;0.20;;;27.70;1.00;;;;;;4938215;29;20538;-74
2023/06/21 11:55:53;;;;;;;2.70;1.37;;;27.80;1.00;;;;;;4936643;29;20511;-73
2023/06/21 11:58:22;;;;;;;0.80;0.30;;;;;;;;;;4937558;29;20503;-73
2023/06/21 12:00:52;;;;;;;1.10;0.53;;;27.90;1.00;;;;;;4937348;29;20546;-73
2023/06/21 12:03:22;;;;;;;0.70;0.10;;;28.00;1.00;;;;;;4937223;29;20942;-74
2023/06/21 12:05:52;;;;;;;0.70;0.20;;;27.90;1.00;;;;;;4937909;29;20542;-73
2023/06/21 12:08:22;;;;;;;1.53;1.43;;;27.90;1.00;;;;;;4936933;29;20459;-73
2023/06/21 12:10:50;;;;;;;0.80;0.40;;;27.80;1.00;;;;;;4937778;29;20475;-73
2023/06/21 12:13:20;;;;;;;0.70;0.10;;;27.70;1.00;;;;;;4937111;29;20443;-73
2023/06/21 12:15:54;;;;;;;0.70;0.10;;;27.70;1.00;;;;;;4937922;29;20455;-74
2023/06/21 12:18:23;;;;;;;0.70;0.10;;;27.90;1.00;;;;;;4932709;29;20586;-75
2023/06/21 12:20:51;;;;;;;0.70;0.20;;;28.10;1.00;;;;;;4937362;29;20550;-74
2023/06/21 12:23:22;;;;;;;0.70;0.20;;;;;;;;;;4936823;29;20439;-75
2023/06/21 12:25:51;;;;;;;0.70;0.20;;;28.20;1.00;;;;;;4931722;29;20484;-75
2023/06/21 12:28:21;;;;;;;1.07;0.93;;;28.30;1.00;;;;;;4919319;29;20452;-73
2023/06/21 12:30:53;;;;;;;1.53;0.30;;;28.30;1.00;;;;;;4919399;29;20480;-73
2023/06/21 12:33:26;;;;;;;0.70;0.10;;;28.50;1.00;;;;;;4918114;29;20586;-75
2023/06/21 12:36:10;;;;;;;0.70;0.20;;;28.70;1.00;;;;;;4918220;29;20936;-74
2023/06/21 12:38:38;;;;;;;0.70;0.20;;;28.80;1.00;;;;;;4917291;29;20452;-74
2023/06/21 12:41:06;;;;;;;0.80;0.30;;;29.10;1.00;;;;;;4919554;29;20471;-74
2023/06/21 12:43:41;;;;;;;0.70;0.20;;;29.20;1.00;;;;;;4935688;29;20480;-74
2023/06/21 12:46:10;;;;;;;1.83;0.93;;;29.20;1.00;;;;;;4940983;29;20482;-74
2023/06/21 12:48:46;;;;;;;0.70;0.10;;;29.20;1.00;;;;;;4947178;29;20547;-75
2023/06/21 12:51:20;;;;;;;0.70;0.10;;;29.30;1.00;;;;;;4925571;29;20508;-74
2023/06/21 12:53:55;;;;;;;1.37;0.60;;;29.10;1.00;;;;;;4917864;29;20444;-74
2023/06/21 12:56:26;;;;;;;1.10;0.50;;;29.00;1.00;;;;;;4917331;29;20476;-74
2023/06/21 12:58:55;;;;;;;0.70;0.10;;;29.00;1.00;;;;;;4922070;29;20452;-73
2023/06/21 13:01:23;;;;;;;1.20;1.00;;;29.10;1.00;;;;;;4936800;29;20540;-74
2023/06/21 13:03:54;;;;;;;0.70;0.10;;;29.00;1.00;;;;;;4937380;29;20491;-74
2023/06/21 13:06:22;;;;;;;0.90;0.70;;;29.20;1.00;;;;;;4937372;29;20486;-73
2023/06/21 13:08:50;;;;;;;0.70;0.20;;;29.10;1.00;;;;;;4935144;29;20555;-73
2023/06/21 13:11:18;;;;;;;0.70;0.10;;;29.30;1.00;;;;;;4946491;28;20464;-73
2023/06/21 13:13:46;;;;;;;0.70;0.20;;;29.40;1.00;;;;;;4955508;29;20511;-74
2023/06/21 13:16:14;;;;;;;0.70;0.20;;;29.40;1.00;;;;;;4937126;29;20951;-73
2023/06/21 13:18:44;;;;;;;0.70;0.10;;;28.50;1.00;;;;;;4936198;29;20535;-73
2023/06/21 13:21:14;;;;;;;0.80;0.63;;;;;;;;;;4936580;29;20473;-74
2023/06/21 13:23:42;;;;;;;0.93;0.50;;;29.50;1.00;;;;;;4935590;29;20440;-74
2023/06/21 13:26:10;;;;;;;0.70;0.20;;;29.60;1.00;;;;;;4935974;29;20484;-73
2023/06/21 13:28:38;;;;;;;1.07;0.60;;;29.60;1.00;;;;;;4935495;29;20555;-73
2023/06/21 13:31:06;;;;;;;0.80;0.40;;;29.30;1.00;;;;;;4935178;29;20473;-73
2023/06/21 13:33:34;;;;;;;0.70;0.30;;;29.10;1.00;;;;;;4934585;29;20535;-73
2023/06/21 13:36:02;;;;;;;0.80;0.47;;;29.20;1.00;;;;;;4935057;29;20488;-75
2023/06/21 13:38:33;;;;;;;0.70;0.20;;;29.20;1.00;;;;;;4935447;29;20963;-74
2023/06/21 13:41:03;;;;;;;0.70;0.10;;;29.20;1.00;;;;;;4935378;29;20480;-74
2023/06/21 13:43:31;;;;;;;1.00;0.40;;;29.30;1.00;;;;;;4935482;29;20495;-73
2023/06/21 13:46:00;;;;;;;0.70;0.10;;;29.40;1.00;;;;;;4935263;29;20987;-74
2023/06/21 13:48:28;;;;;;;0.70;0.13;;;29.40;1.00;;;;;;4935919;29;20448;-75
2023/06/21 13:50:56;;;;;;;0.70;0.17;;;;;;;;;;4936554;29;20479;-74
2023/06/21 13:53:26;;;;;;;0.70;0.13;;;29.80;1.00;;;;;;4936076;29;20971;-75
2023/06/21 13:55:56;;;;;;;0.87;0.40;;;29.90;1.00;;;;;;4936451;29;20483;-74
2023/06/21 13:58:26;;;;;;;0.83;0.33;;;29.40;1.00;;;;;;4936679;29;20451;-74
2023/06/21 14:00:54;;;;;;;0.70;0.10;;;29.20;1.00;;;;;;4936441;29;20480;-75
2023/06/21 14:03:22;;;;;;;0.70;0.20;;;29.40;1.00;;;;;;4936340;29;20848;-73
2023/06/21 14:05:50;;;;;;;1.00;0.70;;;29.60;1.00;;;;;;4936577;29;20959;-75
2023/06/21 14:08:18;;;;;;;0.90;0.40;;;29.90;1.00;;;;;;4936015;29;20497;-74
2023/06/21 14:10:48;;;;;;;1.03;0.70;;;30.10;1.00;;;;;;4942734;28;20447;-74
2023/06/21 14:13:19;;;;;;;0.70;0.10;;;30.10;1.00;;;;;;4954665;29;20530;-74
2023/06/21 14:15:49;;;;;;;0.80;0.20;;;30.30;1.00;;;;;;4950700;29;20853;-74
2023/06/21 14:18:17;;;;;;;0.90;0.40;;;30.10;1.00;;;;;;4935503;29;20506;-74
2023/06/21 14:20:52;;;;;;;1.33;1.23;;;30.00;1.00;;;;;;4939588;29;20546;-77
2023/06/21 14:23:21;;;;;;;0.70;0.20;;;30.00;1.00;;;;;;4939948;29;20449;-74
2023/06/21 14:25:49;;;;;;;0.70;0.10;;;30.20;1.00;;;;;;4939587;29;20544;-73
2023/06/21 14:28:18;;;;;;;0.70;0.20;;;30.20;1.00;;;;;;4940098;29;20493;-73
2023/06/21 14:30:46;;;;;;;1.17;0.47;;;30.40;1.00;;;;;;4939559;29;20463;-73
2023/06/21 14:33:18;;;;;;;0.70;0.20;;;30.40;1.00;;;;;;4940172;29;20470;-75
2023/06/21 14:35:46;;;;;;;0.70;0.20;;;30.40;1.00;;;;;;4939159;29;20440;-73
2023/06/21 14:38:14;;;;;;;0.70;0.20;;;30.40;1.00;;;;;;4939399;29;21025;-74
2023/06/21 14:40:42;;;;;;;1.10;0.40;;;30.20;1.00;;;;;;4939055;29;20453;-74
2023/06/21 14:43:10;;;;;;;0.70;0.20;;;30.20;1.00;;;;;;4938636;29;20502;-74
2023/06/21 14:45:39;;;;;;;0.70;0.20;;;30.20;1.00;;;;;;4939587;29;20488;-73
2023/06/21 14:48:07;;;;;;;2.03;0.90;;;30.10;1.00;;;;;;4940202;29;20484;-74
2023/06/21 14:50:35;;;;;;;0.70;0.10;;;30.00;1.00;;;;;;4938919;29;20876;-74
2023/06/21 14:53:03;;;;;;;0.70;0.20;;;30.20;1.00;;;;;;4938839;29;20444;-75
2023/06/21 14:55:31;;;;;;;0.70;0.20;;;30.40;1.00;;;;;;4939588;29;20454;-74
2023/06/21 14:57:59;;;;;;;1.00;0.57;;;30.70;1.00;;;;;;4938723;29;20449;-74
2023/06/21 15:00:27;;;;;;;0.70;0.20;;;30.70;1.00;;;;;;4938513;29;20863;-75
2023/06/21 15:02:57;;;;;;;0.90;0.40;;;30.80;1.00;;;;;;4938494;29;20455;-73
2023/06/21 15:05:25;;;;;;;2.93;1.77;;;30.80;1.00;;;;;;4937980;29;20465;-73
2023/06/21 15:07:54;;;;;;;3.90;1.10;;;30.20;1.00;;;;;;4949328;23;20481;-72
2023/06/21 15:10:21;;;;;;;1.10;0.40;;;30.20;1.00;;;;;;4922126;29;20469;-72
2023/06/21 15:12:49;;;;;;;1.83;1.07;;;30.30;1.00;;;;;;4918537;29;20492;-72
2023/06/21 15:15:29;;;;;;;0.70;0.20;;;30.30;1.00;;;;;;4937915;29;20477;-72
2023/06/21 15:17:59;;;;;;;0.70;0.30;;;30.60;1.00;;;;;;4938337;29;20517;-72
2023/06/21 15:20:27;;;;;;;1.13;1.03;;;30.70;1.00;;;;;;4937814;29;20534;-73
2023/06/21 15:22:55;;;;;;;2.30;2.10;;;30.80;1.00;;;;;;4937299;29;20450;-72
2023/06/21 15:25:23;;;;;;;0.70;0.20;;;31.00;1.00;;;;;;4937691;29;20919;-71
2023/06/21 15:27:51;;;;;;;0.70;0.20;;;31.20;1.00;;;;;;4937942;29;20529;-72
2023/06/21 15:30:19;;;;;;;1.00;0.87;;;31.20;1.00;;;;;;4938580;29;20450;-72
2023/06/21 15:32:48;;;;;;;0.70;0.20;;;31.20;1.00;;;;;;4939403;29;20813;-73
2023/06/21 15:35:17;;;;;;;0.70;0.20;;;31.20;1.00;;;;;;4938759;29;20851;-73
2023/06/21 15:37:45;;;;;;;0.70;0.20;;;31.50;1.00;;;;;;4938433;29;20542;-73
2023/06/21 15:40:13;;;;;;;0.90;0.60;;;31.60;1.00;;;;;;4937166;29;20831;-72
2023/06/21 15:42:41;;;;;;;0.70;0.10;;;31.40;1.00;;;;;;4936614;29;21074;-72
2023/06/21 15:45:09;;;;;;;0.90;0.53;;;31.40;1.00;;;;;;4943606;29;20489;-72
2023/06/21 15:47:37;;;;;;;0.80;0.20;;;31.10;1.00;;;;;;4956342;28;20520;-73
2023/06/21 15:50:09;;;;;;;1.80;1.20;;;31.10;1.00;;;;;;4955698;29;20439;-73
2023/06/21 15:52:38;;;;;;;0.70;0.20;;;31.20;1.00;;;;;;4947477;29;20490;-73
2023/06/21 15:55:07;;;;;;;0.70;0.10;;;31.60;1.00;;;;;;4928414;29;20531;-71
2023/06/21 15:57:35;;;;;;;0.70;0.17;;;31.80;1.00;;;;;;4937224;29;20444;-73
2023/06/21 16:00:04;;;;;;;0.70;0.20;;;31.80;1.00;;;;;;4936724;29;20483;-73
2023/06/21 16:02:31;;;;;;;0.70;0.20;;;31.90;1.00;;;;;;4937548;29;20457;-72
2023/06/21 16:05:00;;;;;;;0.70;0.20;;;32.20;1.00;;;;;;4937026;29;20829;-71
2023/06/21 16:07:28;;;;;;;0.70;0.30;;;32.10;1.00;;;;;;4936079;29;20578;-73
2023/06/21 16:09:58;;;;;;;0.70;0.20;;;32.10;1.00;;;;;;4936523;29;20478;-74
2023/06/21 16:12:26;;;;;;;0.93;0.83;;;32.00;1.00;;;;;;4930096;29;20447;-72
2023/06/21 16:14:53;;;;;;;0.70;0.30;;;32.00;1.00;;;;;;4937846;29;20495;-74
2023/06/21 16:17:23;;;;;;;0.70;0.20;;;32.10;1.00;;;;;;4936801;29;20539;-74
2023/06/21 16:19:51;;;;;;;1.00;0.83;;;32.20;1.00;;;;;;4937549;29;20467;-72
2023/06/21 16:22:19;;;;;;;0.70;0.20;;;32.30;1.00;;;;;;4933068;29;20994;-71
2023/06/21 16:24:47;;;;;;;0.70;0.20;;;;;;;;;;4933063;29;20443;-73
2023/06/21 16:27:17;;;;;;;0.70;0.20;;;32.40;1.00;;;;;;4936431;29;20530;-72
2023/06/21 16:29:44;;;;;;;0.70;0.20;;;32.90;1.00;;;;;;4938449;29;20570;-71
2023/06/21 16:32:12;;;;;;;0.80;0.30;;;32.90;1.00;;;;;;4936744;29;20459;-73
2023/06/21 16:34:45;;;;;;;0.77;0.23;;;33.00;1.00;;;;;;4933142;29;20529;-71
2023/06/21 16:37:13;;;;;;;1.03;0.60;;;32.90;1.00;;;;;;4937080;29;20460;-71
2023/06/21 16:39:41;;;;;;;0.90;0.50;;;32.60;1.00;;;;;;4937642;29;20522;-71
2023/06/21 16:42:09;;;;;;;2.80;1.60;;;32.30;1.00;;;;;;4927770;29;20495;-70
2023/06/21 16:44:38;;;;;;;2.40;2.17;;;32.00;1.00;;;;;;4936985;29;20452;-72
2023/06/21 16:47:07;;;;;;;3.13;2.90;;;32.10;1.00;;;;;;4933337;29;20495;-71
2023/06/21 16:49:34;;;;;;;2.87;2.67;;;32.20;1.00;;;;;;4930209;29;20514;-70
2023/06/21 16:52:02;;;;;;;1.10;0.77;;;32.10;1.00;;;;;;4928848;29;20531;-72
2023/06/21 16:54:30;;;;;;;0.70;0.20;;;31.90;1.00;;;;;;4935976;29;20446;-73
2023/06/21 16:56:58;;;;;;;0.90;0.60;;;32.10;1.00;;;;;;4929526;29;20451;-72
2023/06/21 16:59:30;;;;;;;0.80;0.30;;;32.10;1.00;;;;;;4936289;29;20473;-73
2023/06/21 17:02:02;;;;;;;1.33;0.87;;;32.40;1.00;;;;;;4932124;29;20484;-72
2023/06/21 17:04:30;;;;;;;0.97;0.87;;;32.50;1.00;;;;;;4926342;29;20483;-72
2023/06/21 17:06:58;;;;;;;1.00;0.57;;;32.30;1.00;;;;;;4927645;29;20447;-71
2023/06/21 17:09:26;;;;;;;0.90;0.70;;;32.30;1.00;;;;;;4930573;29;20525;-71
2023/06/21 17:11:54;;;;;;;0.70;0.37;;;32.40;1.00;;;;;;4930075;29;20457;-72
2023/06/21 17:14:22;;;;;;;0.70;0.20;;;32.80;1.00;;;;;;4935396;29;20450;-69
2023/06/21 17:16:50;;;;;;;0.70;0.20;;;32.90;1.00;;;;;;4932186;29;20451;-72
2023/06/21 17:19:19;;;;;;;0.80;0.37;;;33.00;1.00;;;;;;4935704;29;20467;-72